createdAt,value
2019-01-16T00:00:37.812Z,996.7
2019-01-16T00:01:39.944Z,996.7
2019-01-16T00:02:42.087Z,996.8
2019-01-16T00:03:44.243Z,996.8
2019-01-16T00:04:46.706Z,996.7
2019-01-16T00:05:49.047Z,996.8
2019-01-16T00:06:51.204Z,996.9
2019-01-16T00:07:53.429Z,996.8
2019-01-16T00:08:55.849Z,996.8
2019-01-16T00:09:57.982Z,996.9
2019-01-16T00:11:00.112Z,996.9
2019-01-16T00:12:02.279Z,996.9
2019-01-16T00:13:04.535Z,996.9
2019-01-16T00:14:06.673Z,997
2019-01-16T00:15:09.124Z,996.9
2019-01-16T00:16:11.257Z,997
2019-01-16T00:17:13.793Z,997
2019-01-16T00:18:17.563Z,996.9
2019-01-16T00:19:19.761Z,997
2019-01-16T00:20:21.961Z,996.9
2019-01-16T00:21:24.121Z,997
2019-01-16T00:22:26.274Z,997
2019-01-16T00:23:28.424Z,996.9
2019-01-16T00:24:30.563Z,996.9
2019-01-16T00:25:32.703Z,997
2019-01-16T00:26:34.851Z,997
2019-01-16T00:27:36.977Z,996.9
2019-01-16T00:28:39.157Z,997
2019-01-16T00:29:41.301Z,997
2019-01-16T00:30:43.475Z,997
2019-01-16T00:31:45.638Z,997
2019-01-16T00:32:48.141Z,997
2019-01-16T00:33:50.718Z,997
2019-01-16T00:34:53.337Z,997
2019-01-16T00:35:55.479Z,997
2019-01-16T00:36:57.701Z,997
2019-01-16T00:37:59.872Z,997
2019-01-16T00:39:02.014Z,997
2019-01-16T00:40:04.152Z,997
2019-01-16T00:41:06.317Z,997
2019-01-16T00:42:08.462Z,997.1
2019-01-16T00:43:11.641Z,997
2019-01-16T00:44:13.805Z,997
2019-01-16T00:45:15.956Z,997
2019-01-16T00:46:18.493Z,996.9
2019-01-16T00:47:20.626Z,997
2019-01-16T00:48:24.952Z,997
2019-01-16T00:49:27.081Z,997
2019-01-16T00:50:29.224Z,997
2019-01-16T00:51:31.400Z,997
2019-01-16T00:52:33.944Z,997.1
2019-01-16T00:53:36.379Z,997
2019-01-16T00:54:38.545Z,996.9
2019-01-16T00:55:40.669Z,997.1
2019-01-16T00:56:43.091Z,997
2019-01-16T00:57:45.282Z,997
2019-01-16T00:58:47.466Z,997
2019-01-16T00:59:49.603Z,997
2019-01-16T01:00:52.039Z,997
2019-01-16T01:01:54.163Z,997.1
2019-01-16T01:02:56.298Z,997.1
2019-01-16T01:03:58.422Z,997
2019-01-16T01:05:02.106Z,997
2019-01-16T01:06:08.032Z,997
2019-01-16T01:07:10.464Z,997.1
2019-01-16T01:08:12.607Z,997
2019-01-16T01:09:14.746Z,997
2019-01-16T01:10:16.887Z,997.1
2019-01-16T01:11:19.026Z,997
2019-01-16T01:12:21.169Z,997
2019-01-16T01:13:23.289Z,997.1
2019-01-16T01:14:25.431Z,997.1
2019-01-16T01:15:27.577Z,997.1
2019-01-16T01:16:29.693Z,997.1
2019-01-16T01:17:31.821Z,997.1
2019-01-16T01:18:41.258Z,997.1
2019-01-16T01:19:43.707Z,997.2
2019-01-16T01:20:45.860Z,997.2
2019-01-16T01:21:47.982Z,997.2
2019-01-16T01:22:50.133Z,997.2
2019-01-16T01:23:52.398Z,997.1
2019-01-16T01:24:54.550Z,997.2
2019-01-16T01:25:56.697Z,997.2
2019-01-16T01:26:58.847Z,997
2019-01-16T01:28:00.976Z,997.1
2019-01-16T01:29:03.485Z,997.1
2019-01-16T01:30:05.630Z,997.1
2019-01-16T01:31:07.777Z,997.1
2019-01-16T01:32:09.911Z,997.2
2019-01-16T01:33:12.057Z,997.1
2019-01-16T01:34:14.181Z,997
2019-01-16T01:35:16.306Z,997
2019-01-16T01:36:18.721Z,997
2019-01-16T01:37:20.850Z,997.1
2019-01-16T01:38:23.281Z,997.1
2019-01-16T01:39:25.421Z,997.1
2019-01-16T01:40:27.619Z,997
2019-01-16T01:41:29.735Z,997.1
2019-01-16T01:42:31.875Z,997.1
2019-01-16T01:43:34.593Z,997.1
2019-01-16T01:44:37.032Z,997.1
2019-01-16T01:45:39.162Z,997.2
2019-01-16T01:46:41.300Z,997.1
2019-01-16T01:47:43.745Z,997.1
2019-01-16T01:48:45.934Z,997.1
2019-01-16T01:49:48.083Z,997.1
2019-01-16T01:50:50.212Z,997.2
2019-01-16T01:51:52.344Z,997.2
2019-01-16T01:52:54.490Z,997.1
2019-01-16T01:53:56.631Z,997.2
2019-01-16T01:54:59.139Z,997.2
2019-01-16T01:56:01.322Z,997.1
2019-01-16T01:57:03.461Z,997.1
2019-01-16T01:58:05.917Z,997.1
2019-01-16T01:59:08.058Z,997.1
2019-01-16T02:00:12.450Z,997.1
2019-01-16T02:01:14.598Z,997.1
2019-01-16T02:02:16.743Z,997.1
2019-01-16T02:03:18.867Z,997.1
2019-01-16T02:04:21.000Z,997.1
2019-01-16T02:05:23.129Z,997.2
2019-01-16T02:06:25.262Z,997
2019-01-16T02:07:27.395Z,997.2
2019-01-16T02:08:29.543Z,997.1
2019-01-16T02:09:31.696Z,997.1
2019-01-16T02:10:33.840Z,997.1
2019-01-16T02:11:35.982Z,997.1
2019-01-16T02:12:38.131Z,997
2019-01-16T02:13:40.268Z,997.2
2019-01-16T02:14:42.456Z,997.1
2019-01-16T02:15:44.600Z,997.1
2019-01-16T02:16:46.735Z,997.1
2019-01-16T02:17:48.885Z,997.1
2019-01-16T02:18:51.026Z,997.1
2019-01-16T02:19:53.438Z,997
2019-01-16T02:20:55.571Z,997.1
2019-01-16T02:21:57.715Z,997.1
2019-01-16T02:22:59.857Z,997.1
2019-01-16T02:24:02.008Z,997.1
2019-01-16T02:25:04.427Z,997
2019-01-16T02:26:06.953Z,997
2019-01-16T02:27:09.391Z,997
2019-01-16T02:28:11.535Z,997
2019-01-16T02:29:13.660Z,997
2019-01-16T02:30:15.806Z,997
2019-01-16T02:31:18.540Z,997
2019-01-16T02:32:20.692Z,997
2019-01-16T02:33:22.817Z,997
2019-01-16T02:34:24.965Z,997
2019-01-16T02:35:27.081Z,996.9
2019-01-16T02:36:29.268Z,997
2019-01-16T02:37:31.424Z,996.9
2019-01-16T02:38:33.564Z,996.9
2019-01-16T02:39:35.714Z,996.9
2019-01-16T02:40:37.848Z,997
2019-01-16T02:41:40.042Z,997
2019-01-16T02:42:42.175Z,996.8
2019-01-16T02:43:44.299Z,996.8
2019-01-16T02:44:46.820Z,996.9
2019-01-16T02:45:49.233Z,996.8
2019-01-16T02:46:51.415Z,996.9
2019-01-16T02:47:53.542Z,996.9
2019-01-16T02:48:56.646Z,996.9
2019-01-16T02:49:58.802Z,996.9
2019-01-16T02:51:00.954Z,996.9
2019-01-16T02:52:03.378Z,996.9
2019-01-16T02:53:05.528Z,996.9
2019-01-16T02:54:07.701Z,996.9
2019-01-16T02:55:10.115Z,996.9
2019-01-16T02:56:12.248Z,996.8
2019-01-16T02:57:14.393Z,996.9
2019-01-16T02:58:16.541Z,996.8
2019-01-16T02:59:18.686Z,996.8
2019-01-16T03:00:20.833Z,996.8
2019-01-16T03:01:22.971Z,996.9
2019-01-16T03:02:25.107Z,996.9
2019-01-16T03:03:27.251Z,996.8
2019-01-16T03:04:29.857Z,996.8
2019-01-16T03:05:31.982Z,996.8
2019-01-16T03:06:34.123Z,996.8
2019-01-16T03:07:36.542Z,996.8
2019-01-16T03:08:39.007Z,996.7
2019-01-16T03:09:41.166Z,996.8
2019-01-16T03:10:43.584Z,996.8
2019-01-16T03:11:45.745Z,996.8
2019-01-16T03:12:47.876Z,996.7
2019-01-16T03:13:50.034Z,996.7
2019-01-16T03:14:52.458Z,996.7
2019-01-16T03:15:54.891Z,996.7
2019-01-16T03:16:57.036Z,996.7
2019-01-16T03:17:59.170Z,996.8
2019-01-16T03:19:05.114Z,996.8
2019-01-16T03:20:07.253Z,996.7
2019-01-16T03:21:09.702Z,996.8
2019-01-16T03:22:12.514Z,996.7
2019-01-16T03:23:14.640Z,996.7
2019-01-16T03:24:17.972Z,996.7
2019-01-16T03:25:20.106Z,996.8
2019-01-16T03:26:22.537Z,996.7
2019-01-16T03:27:25.364Z,996.6
2019-01-16T03:28:27.509Z,996.7
2019-01-16T03:29:29.648Z,996.7
2019-01-16T03:30:32.083Z,996.7
2019-01-16T03:31:35.278Z,996.7
2019-01-16T03:32:38.939Z,996.7
2019-01-16T03:33:41.792Z,996.7
2019-01-16T03:34:43.948Z,996.6
2019-01-16T03:35:46.071Z,996.7
2019-01-16T03:36:48.214Z,996.7
2019-01-16T03:37:50.363Z,996.7
2019-01-16T03:38:52.505Z,996.7
2019-01-16T03:39:54.642Z,996.7
2019-01-16T03:40:56.773Z,996.7
2019-01-16T03:41:59.496Z,996.8
2019-01-16T03:43:01.654Z,996.8
2019-01-16T03:44:04.472Z,996.8
2019-01-16T03:45:06.914Z,996.8
2019-01-16T03:46:09.058Z,996.8
2019-01-16T03:47:11.228Z,996.8
2019-01-16T03:48:13.361Z,996.8
2019-01-16T03:49:15.555Z,996.8
2019-01-16T03:50:17.997Z,996.8
2019-01-16T03:51:20.173Z,996.8
2019-01-16T03:52:22.296Z,996.8
2019-01-16T03:53:24.455Z,996.7
2019-01-16T03:54:27.024Z,996.8
2019-01-16T03:55:29.177Z,996.8
2019-01-16T03:56:31.605Z,996.7
2019-01-16T03:57:33.737Z,996.7
2019-01-16T03:58:35.935Z,996.8
2019-01-16T03:59:38.098Z,996.8
2019-01-16T04:00:40.526Z,996.8
2019-01-16T04:01:42.663Z,996.7
2019-01-16T04:02:45.096Z,996.8
2019-01-16T04:03:47.498Z,996.8
2019-01-16T04:04:49.921Z,996.7
2019-01-16T04:05:52.042Z,996.8
2019-01-16T04:06:54.447Z,996.8
2019-01-16T04:07:57.101Z,996.7
2019-01-16T04:08:59.249Z,996.7
2019-01-16T04:10:01.686Z,996.7
2019-01-16T04:11:03.856Z,996.7
2019-01-16T04:12:06.495Z,996.7
2019-01-16T04:13:08.969Z,996.7
2019-01-16T04:14:11.392Z,996.6
2019-01-16T04:15:13.537Z,996.6
2019-01-16T04:16:15.663Z,996.6
2019-01-16T04:17:18.117Z,996.7
2019-01-16T04:18:20.265Z,996.6
2019-01-16T04:19:22.413Z,996.6
2019-01-16T04:20:24.579Z,996.6
2019-01-16T04:21:26.758Z,996.6
2019-01-16T04:22:28.883Z,996.6
2019-01-16T04:23:31.043Z,996.5
2019-01-16T04:24:33.755Z,996.5
2019-01-16T04:25:35.887Z,996.6
2019-01-16T04:26:38.354Z,996.5
2019-01-16T04:27:40.512Z,996.5
2019-01-16T04:28:42.659Z,996.5
2019-01-16T04:29:44.819Z,996.5
2019-01-16T04:30:46.993Z,996.5
2019-01-16T04:31:49.133Z,996.4
2019-01-16T04:32:51.249Z,996.5
2019-01-16T04:33:53.412Z,996.5
2019-01-16T04:34:55.946Z,996.5
2019-01-16T04:35:58.447Z,996.4
2019-01-16T04:37:00.574Z,996.4
2019-01-16T04:38:03.132Z,996.5
2019-01-16T04:39:05.945Z,996.4
2019-01-16T04:40:08.088Z,996.5
2019-01-16T04:41:10.514Z,996.5
2019-01-16T04:42:12.922Z,996.5
2019-01-16T04:43:15.446Z,996.5
2019-01-16T04:44:17.587Z,996.5
2019-01-16T04:45:20.141Z,996.4
2019-01-16T04:46:22.549Z,996.4
2019-01-16T04:47:24.683Z,996.4
2019-01-16T04:48:26.813Z,996.4
2019-01-16T04:49:30.934Z,996.4
2019-01-16T04:50:33.098Z,996.5
2019-01-16T04:51:35.238Z,996.5
2019-01-16T04:52:37.406Z,996.4
2019-01-16T04:53:39.571Z,996.4
2019-01-16T04:54:42.104Z,996.4
2019-01-16T04:55:44.261Z,996.4
2019-01-16T04:56:46.399Z,996.4
2019-01-16T04:57:48.522Z,996.4
2019-01-16T04:58:50.938Z,996.4
2019-01-16T04:59:53.371Z,996.4
2019-01-16T05:00:55.563Z,996.4
2019-01-16T05:01:57.718Z,996.5
2019-01-16T05:02:59.863Z,996.4
2019-01-16T05:04:02.617Z,996.4
2019-01-16T05:05:04.769Z,996.4
2019-01-16T05:06:06.900Z,996.4
2019-01-16T05:07:09.359Z,996.4
2019-01-16T05:08:11.503Z,996.4
2019-01-16T05:09:14.568Z,996.3
2019-01-16T05:10:16.999Z,996.3
2019-01-16T05:11:19.121Z,996.4
2019-01-16T05:12:21.636Z,996.3
2019-01-16T05:13:24.101Z,996.3
2019-01-16T05:14:26.253Z,996.4
2019-01-16T05:15:29.098Z,996.3
2019-01-16T05:16:31.239Z,996.4
2019-01-16T05:17:33.386Z,996.4
2019-01-16T05:18:35.523Z,996.3
2019-01-16T05:19:39.196Z,996.3
2019-01-16T05:20:41.315Z,996.4
2019-01-16T05:21:43.451Z,996.3
2019-01-16T05:22:45.882Z,996.4
2019-01-16T05:23:48.312Z,996.4
2019-01-16T05:24:50.452Z,996.3
2019-01-16T05:25:53.152Z,996.4
2019-01-16T05:26:55.371Z,996.4
2019-01-16T05:27:57.799Z,996.4
2019-01-16T05:28:59.937Z,996.3
2019-01-16T05:30:02.089Z,996.3
2019-01-16T05:31:04.837Z,996.3
2019-01-16T05:32:06.985Z,996.3
2019-01-16T05:33:09.504Z,996.3
2019-01-16T05:34:11.663Z,996.2
2019-01-16T05:35:13.811Z,996.2
2019-01-16T05:36:15.954Z,996.2
2019-01-16T05:37:18.379Z,996.2
2019-01-16T05:38:20.531Z,996.2
2019-01-16T05:39:22.957Z,996.2
2019-01-16T05:40:25.475Z,996.2
2019-01-16T05:41:27.602Z,996.2
2019-01-16T05:42:29.768Z,996.3
2019-01-16T05:43:31.923Z,996.2
2019-01-16T05:44:34.078Z,996.2
2019-01-16T05:45:36.276Z,996.2
2019-01-16T05:46:38.821Z,996.2
2019-01-16T05:47:40.989Z,996.2
2019-01-16T05:48:43.132Z,996.2
2019-01-16T05:49:47.287Z,996.2
2019-01-16T05:50:49.728Z,996.2
2019-01-16T05:51:51.882Z,996.1
2019-01-16T05:52:54.417Z,996.2
2019-01-16T05:53:56.557Z,996.2
2019-01-16T05:54:58.723Z,996.1
2019-01-16T05:56:00.862Z,996.1
2019-01-16T05:57:03.283Z,996.2
2019-01-16T05:58:05.430Z,996.1
2019-01-16T05:59:07.581Z,996.2
2019-01-16T06:00:09.808Z,996.1
2019-01-16T06:01:11.936Z,996.2
2019-01-16T06:02:14.139Z,996.1
2019-01-16T06:03:16.850Z,996.2
2019-01-16T06:04:18.981Z,996.2
2019-01-16T06:05:21.413Z,996.2
2019-01-16T06:06:23.541Z,996.1
2019-01-16T06:07:25.673Z,996.1
2019-01-16T06:08:27.818Z,996.1
2019-01-16T06:09:29.983Z,996.1
2019-01-16T06:10:32.121Z,996.2
2019-01-16T06:11:34.813Z,996.2
2019-01-16T06:12:37.340Z,996.2
2019-01-16T06:13:39.482Z,996.1
2019-01-16T06:14:41.605Z,996.1
2019-01-16T06:15:43.753Z,996.2
2019-01-16T06:16:45.890Z,996.1
2019-01-16T06:17:48.325Z,996
2019-01-16T06:18:50.849Z,996.1
2019-01-16T06:19:54.442Z,996.1
2019-01-16T06:20:56.557Z,996
2019-01-16T06:21:58.689Z,996
2019-01-16T06:23:00.812Z,996.1
2019-01-16T06:24:02.948Z,996
2019-01-16T06:25:05.089Z,996.1
2019-01-16T06:26:07.620Z,996
2019-01-16T06:27:09.761Z,996
2019-01-16T06:28:12.283Z,996
2019-01-16T06:29:14.463Z,996
2019-01-16T06:30:16.874Z,996
2019-01-16T06:31:19.012Z,996
2019-01-16T06:32:21.149Z,996.1
2019-01-16T06:33:23.582Z,996.1
2019-01-16T06:34:26.716Z,996.1
2019-01-16T06:35:29.163Z,996.1
2019-01-16T06:36:31.314Z,996.1
2019-01-16T06:37:33.456Z,996
2019-01-16T06:38:35.872Z,996
2019-01-16T06:39:38.031Z,996.1
2019-01-16T06:40:40.184Z,996
2019-01-16T06:41:42.614Z,996
2019-01-16T06:42:44.733Z,996
2019-01-16T06:43:46.893Z,996
2019-01-16T06:44:49.016Z,996
2019-01-16T06:45:51.139Z,996
2019-01-16T06:46:53.286Z,996
2019-01-16T06:47:55.424Z,996
2019-01-16T06:48:57.565Z,996
2019-01-16T06:50:02.356Z,996
2019-01-16T06:51:04.494Z,996
2019-01-16T06:52:06.653Z,996
2019-01-16T06:53:08.802Z,996
2019-01-16T06:54:10.931Z,996
2019-01-16T06:55:13.051Z,996
2019-01-16T06:56:15.255Z,996
2019-01-16T06:57:17.376Z,995.9
2019-01-16T06:58:19.495Z,996.1
2019-01-16T06:59:21.919Z,996
2019-01-16T07:00:24.061Z,996
2019-01-16T07:01:26.209Z,996
2019-01-16T07:02:28.351Z,995.9
2019-01-16T07:03:30.492Z,996
2019-01-16T07:04:32.630Z,996
2019-01-16T07:05:34.764Z,995.8
2019-01-16T07:06:36.919Z,996
2019-01-16T07:07:39.105Z,996
2019-01-16T07:08:41.265Z,996.1
2019-01-16T07:09:43.402Z,996.1
2019-01-16T07:10:46.120Z,995.9
2019-01-16T07:11:48.259Z,996
2019-01-16T07:12:50.444Z,996
2019-01-16T07:13:52.598Z,996
2019-01-16T07:14:55.122Z,996
2019-01-16T07:15:57.245Z,996
2019-01-16T07:16:59.383Z,996
2019-01-16T07:18:01.511Z,996.1
2019-01-16T07:19:03.644Z,996
2019-01-16T07:20:10.294Z,996.1
2019-01-16T07:21:12.756Z,996
2019-01-16T07:22:14.965Z,996
2019-01-16T07:23:17.094Z,996
2019-01-16T07:24:19.241Z,996
2019-01-16T07:25:21.361Z,996
2019-01-16T07:26:23.494Z,996
2019-01-16T07:27:25.632Z,996.1
2019-01-16T07:28:27.746Z,996
2019-01-16T07:29:29.864Z,996
2019-01-16T07:30:32.273Z,996
2019-01-16T07:31:34.412Z,996
2019-01-16T07:32:36.594Z,996
2019-01-16T07:33:38.733Z,996
2019-01-16T07:34:41.158Z,996
2019-01-16T07:35:43.579Z,995.8
2019-01-16T07:36:45.709Z,995.9
2019-01-16T07:37:47.858Z,995.9
2019-01-16T07:38:50.001Z,996
2019-01-16T07:39:52.145Z,995.9
2019-01-16T07:40:54.268Z,996
2019-01-16T07:41:56.399Z,996
2019-01-16T07:42:58.552Z,995.9
2019-01-16T07:44:00.686Z,996
2019-01-16T07:45:02.825Z,996
2019-01-16T07:46:04.972Z,995.9
2019-01-16T07:47:07.105Z,996
2019-01-16T07:48:09.250Z,996
2019-01-16T07:49:11.392Z,996
2019-01-16T07:50:17.852Z,996
2019-01-16T07:51:20.004Z,996
2019-01-16T07:52:22.174Z,996
2019-01-16T07:53:24.320Z,996
2019-01-16T07:54:26.753Z,996
2019-01-16T07:55:28.891Z,996
2019-01-16T07:56:31.021Z,996
2019-01-16T07:57:33.165Z,996.1
2019-01-16T07:58:35.291Z,996.1
2019-01-16T07:59:37.498Z,996
2019-01-16T08:00:40.221Z,996
2019-01-16T08:01:42.418Z,996
2019-01-16T08:02:44.554Z,996
2019-01-16T08:03:46.974Z,996
2019-01-16T08:04:49.108Z,996
2019-01-16T08:05:51.235Z,996
2019-01-16T08:06:53.361Z,996
2019-01-16T08:07:55.504Z,996
2019-01-16T08:08:57.630Z,996
2019-01-16T08:09:59.769Z,996
2019-01-16T08:11:02.351Z,995.9
2019-01-16T08:12:04.487Z,996
2019-01-16T08:13:06.917Z,995.9
2019-01-16T08:14:09.047Z,996
2019-01-16T08:15:11.254Z,995.9
2019-01-16T08:16:13.386Z,995.9
2019-01-16T08:17:15.523Z,995.9
2019-01-16T08:18:17.648Z,996
2019-01-16T08:19:19.769Z,995.9
2019-01-16T08:20:25.410Z,995.9
2019-01-16T08:21:27.842Z,995.8
2019-01-16T08:22:30.004Z,995.9
2019-01-16T08:23:32.152Z,995.8
2019-01-16T08:24:34.331Z,995.9
2019-01-16T08:25:36.449Z,995.8
2019-01-16T08:26:38.579Z,995.8
2019-01-16T08:27:41.090Z,995.8
2019-01-16T08:28:43.624Z,995.8
2019-01-16T08:29:45.784Z,995.8
2019-01-16T08:30:47.928Z,995.8
2019-01-16T08:31:50.072Z,995.8
2019-01-16T08:32:52.206Z,995.8
2019-01-16T08:33:54.337Z,995.8
2019-01-16T08:34:56.455Z,995.8
2019-01-16T08:35:58.596Z,995.9
2019-01-16T08:37:00.749Z,995.8
2019-01-16T08:38:02.873Z,995.7
2019-01-16T08:39:04.986Z,995.8
2019-01-16T08:40:07.116Z,995.8
2019-01-16T08:41:09.235Z,995.8
2019-01-16T08:42:11.399Z,995.8
2019-01-16T08:43:13.577Z,995.8
2019-01-16T08:44:15.719Z,995.7
2019-01-16T08:45:17.867Z,995.8
2019-01-16T08:46:20.015Z,995.8
2019-01-16T08:47:22.161Z,995.8
2019-01-16T08:48:24.290Z,995.8
2019-01-16T08:49:26.771Z,995.8
2019-01-16T08:50:33.080Z,995.7
2019-01-16T08:51:35.218Z,995.7
2019-01-16T08:52:37.359Z,995.7
2019-01-16T08:53:39.476Z,995.7
2019-01-16T08:54:41.624Z,995.7
2019-01-16T08:55:43.818Z,995.6
2019-01-16T08:56:45.960Z,995.7
2019-01-16T08:57:48.131Z,995.7
2019-01-16T08:58:50.953Z,995.7
2019-01-16T08:59:53.089Z,995.6
2019-01-16T09:00:55.227Z,995.7
2019-01-16T09:01:58.062Z,995.6
2019-01-16T09:03:00.492Z,995.5
2019-01-16T09:04:03.224Z,995.7
2019-01-16T09:05:05.627Z,995.6
2019-01-16T09:06:07.751Z,995.7
2019-01-16T09:07:09.860Z,995.6
2019-01-16T09:08:11.982Z,995.5
2019-01-16T09:09:14.473Z,995.5
2019-01-16T09:10:16.638Z,995.6
2019-01-16T09:11:19.052Z,995.6
2019-01-16T09:12:21.453Z,995.6
2019-01-16T09:13:23.571Z,995.6
2019-01-16T09:14:25.759Z,995.6
2019-01-16T09:15:35.233Z,995.5
2019-01-16T09:16:37.359Z,995.5
2019-01-16T09:17:39.480Z,995.6
2019-01-16T09:18:43.737Z,995.5
2019-01-16T09:19:45.853Z,995.5
2019-01-16T09:20:47.978Z,995.5
2019-01-16T09:21:50.092Z,995.5
2019-01-16T09:22:52.210Z,995.5
2019-01-16T09:23:54.346Z,995.5
2019-01-16T09:24:56.460Z,995.5
2019-01-16T09:25:58.854Z,995.5
2019-01-16T09:27:00.989Z,995.4
2019-01-16T09:28:03.397Z,995.6
2019-01-16T09:29:05.517Z,995.5
2019-01-16T09:30:07.924Z,995.5
2019-01-16T09:31:10.045Z,995.5
2019-01-16T09:32:12.157Z,995.5
2019-01-16T09:33:14.279Z,995.5
2019-01-16T09:34:16.796Z,995.6
2019-01-16T09:35:19.214Z,995.5
2019-01-16T09:36:21.313Z,995.5
2019-01-16T09:37:23.442Z,995.5
2019-01-16T09:38:25.965Z,995.5
2019-01-16T09:39:28.096Z,995.5
2019-01-16T09:40:30.475Z,995.4
2019-01-16T09:41:32.598Z,995.4
2019-01-16T09:42:35.019Z,995.4
2019-01-16T09:43:37.133Z,995.4
2019-01-16T09:44:39.308Z,995.3
2019-01-16T09:45:41.409Z,995.3
2019-01-16T09:46:43.524Z,995.3
2019-01-16T09:47:45.653Z,995.3
2019-01-16T09:48:47.781Z,995.3
2019-01-16T09:49:49.895Z,995.3
2019-01-16T09:50:52.018Z,995.4
2019-01-16T09:51:54.138Z,995.3
2019-01-16T09:52:56.642Z,995.3
2019-01-16T09:53:58.790Z,995.3
2019-01-16T09:55:00.918Z,995.2
2019-01-16T09:56:03.812Z,995.3
2019-01-16T09:57:05.966Z,995.3
2019-01-16T09:58:08.359Z,995.3
2019-01-16T09:59:10.480Z,995.3
2019-01-16T10:00:12.640Z,995.4
2019-01-16T10:01:14.763Z,995.3
2019-01-16T10:02:17.195Z,995.3
2019-01-16T10:03:19.320Z,995.3
2019-01-16T10:04:21.449Z,995.3
2019-01-16T10:05:23.554Z,995.3
2019-01-16T10:06:25.708Z,995.2
2019-01-16T10:07:28.211Z,995.3
2019-01-16T10:08:30.310Z,995.2
2019-01-16T10:09:32.726Z,995.2
2019-01-16T10:10:34.958Z,995.2
2019-01-16T10:11:37.105Z,995.3
2019-01-16T10:12:39.232Z,995.3
2019-01-16T10:13:41.348Z,995
2019-01-16T10:14:43.476Z,995.2
2019-01-16T10:15:45.617Z,995.2
2019-01-16T10:16:47.927Z,995.1
2019-01-16T10:17:50.479Z,995.1
2019-01-16T10:18:52.603Z,995.1
2019-01-16T10:19:54.730Z,995.1
2019-01-16T10:20:56.871Z,995.1
2019-01-16T10:21:58.989Z,995.1
2019-01-16T10:23:01.101Z,995.1
2019-01-16T10:24:03.522Z,995.1
2019-01-16T10:25:05.634Z,995
2019-01-16T10:26:07.797Z,995.1
2019-01-16T10:27:10.377Z,995
2019-01-16T10:28:12.498Z,995
2019-01-16T10:29:14.607Z,995
2019-01-16T10:30:16.732Z,995
2019-01-16T10:31:18.843Z,994.9
2019-01-16T10:32:20.972Z,995
2019-01-16T10:33:23.497Z,995
2019-01-16T10:34:25.604Z,995
2019-01-16T10:35:27.728Z,995
2019-01-16T10:36:29.841Z,995
2019-01-16T10:37:32.245Z,995
2019-01-16T10:38:34.340Z,995
2019-01-16T10:39:36.475Z,995
2019-01-16T10:40:39.031Z,995
2019-01-16T10:41:41.140Z,994.9
2019-01-16T10:42:43.280Z,994.9
2019-01-16T10:43:45.382Z,994.9
2019-01-16T10:44:47.496Z,995
2019-01-16T10:45:49.613Z,994.9
2019-01-16T10:46:51.752Z,994.9
2019-01-16T10:47:53.865Z,994.9
2019-01-16T10:48:55.983Z,994.9
2019-01-16T10:49:58.104Z,995
2019-01-16T10:51:03.562Z,994.9
2019-01-16T10:52:05.982Z,994.9
2019-01-16T10:53:08.099Z,994.8
2019-01-16T10:54:10.203Z,994.8
2019-01-16T10:55:12.611Z,994.8
2019-01-16T10:56:14.732Z,994.9
2019-01-16T10:57:16.837Z,994.9
2019-01-16T10:58:19.244Z,994.8
2019-01-16T10:59:21.364Z,994.8
2019-01-16T11:00:23.464Z,994.8
2019-01-16T11:01:25.583Z,994.8
2019-01-16T11:02:27.718Z,994.9
2019-01-16T11:03:29.824Z,994.8
2019-01-16T11:04:32.369Z,994.7
2019-01-16T11:05:34.489Z,994.8
2019-01-16T11:06:36.586Z,994.7
2019-01-16T11:07:38.727Z,994.7
2019-01-16T11:08:40.835Z,994.7
2019-01-16T11:09:42.949Z,994.8
2019-01-16T11:10:45.048Z,994.7
2019-01-16T11:11:47.173Z,994.7
2019-01-16T11:12:49.587Z,994.6
2019-01-16T11:13:51.994Z,994.6
2019-01-16T11:14:54.118Z,994.7
2019-01-16T11:15:56.494Z,994.7
2019-01-16T11:16:58.621Z,994.6
2019-01-16T11:18:00.746Z,994.5
2019-01-16T11:19:02.865Z,994.5
2019-01-16T11:20:04.966Z,994.5
2019-01-16T11:21:11.388Z,994.5
2019-01-16T11:22:13.784Z,994.5
2019-01-16T11:23:15.893Z,994.5
2019-01-16T11:24:18.305Z,994.4
2019-01-16T11:25:20.422Z,994.5
2019-01-16T11:26:22.546Z,994.4
2019-01-16T11:27:24.652Z,994.4
2019-01-16T11:28:26.777Z,994.4
2019-01-16T11:29:28.917Z,994.4
2019-01-16T11:30:31.031Z,994.4
2019-01-16T11:31:33.160Z,994.4
2019-01-16T11:32:35.274Z,994.4
2019-01-16T11:33:37.388Z,994.4
2019-01-16T11:34:39.507Z,994.3
2019-01-16T11:35:41.650Z,994.3
2019-01-16T11:36:44.154Z,994.3
2019-01-16T11:37:46.272Z,994.3
2019-01-16T11:38:48.383Z,994.3
2019-01-16T11:39:50.493Z,994.3
2019-01-16T11:40:52.627Z,994.3
2019-01-16T11:41:54.745Z,994.2
2019-01-16T11:42:57.253Z,994.2
2019-01-16T11:43:59.363Z,994.3
2019-01-16T11:45:01.506Z,994.2
2019-01-16T11:46:03.615Z,994.2
2019-01-16T11:47:05.729Z,994.2
2019-01-16T11:48:08.139Z,994.2
2019-01-16T11:49:10.247Z,994.2
2019-01-16T11:50:12.373Z,994.2
2019-01-16T11:51:19.165Z,994.2
2019-01-16T11:52:21.319Z,994
2019-01-16T11:53:23.421Z,994.1
2019-01-16T11:54:25.554Z,994.1
2019-01-16T11:55:27.661Z,994.1
2019-01-16T11:56:29.786Z,994.1
2019-01-16T11:57:31.915Z,994.1
2019-01-16T11:58:34.028Z,994.1
2019-01-16T11:59:36.154Z,994
2019-01-16T12:00:38.282Z,994.1
2019-01-16T12:01:40.405Z,994.1
2019-01-16T12:02:42.798Z,994
2019-01-16T12:03:45.305Z,994.1
2019-01-16T12:04:49.021Z,994
2019-01-16T12:05:51.148Z,994
2019-01-16T12:06:53.547Z,993.9
2019-01-16T12:07:55.672Z,994
2019-01-16T12:08:57.800Z,993.9
2019-01-16T12:09:59.901Z,993.8
2019-01-16T12:11:02.146Z,994
2019-01-16T12:12:04.271Z,993.9
2019-01-16T12:13:06.965Z,994
2019-01-16T12:14:09.103Z,994
2019-01-16T12:15:11.611Z,994
2019-01-16T12:16:13.730Z,993.9
2019-01-16T12:17:16.118Z,994
2019-01-16T12:18:18.253Z,993.9
2019-01-16T12:19:20.941Z,994
2019-01-16T12:20:23.053Z,993.9
2019-01-16T12:21:26.938Z,993.9
2019-01-16T12:22:29.037Z,993.9
2019-01-16T12:23:31.166Z,993.8
2019-01-16T12:24:33.293Z,993.9
2019-01-16T12:25:35.422Z,993.9
2019-01-16T12:26:37.535Z,993.9
2019-01-16T12:27:39.665Z,993.9
2019-01-16T12:28:41.771Z,993.9
2019-01-16T12:29:43.894Z,993.8
2019-01-16T12:30:46.311Z,993.8
2019-01-16T12:31:48.418Z,993.8
2019-01-16T12:32:52.221Z,993.8
2019-01-16T12:33:54.354Z,993.8
2019-01-16T12:34:56.795Z,993.8
2019-01-16T12:35:58.903Z,993.8
2019-01-16T12:37:01.025Z,993.8
2019-01-16T12:38:03.144Z,993.8
2019-01-16T12:39:05.554Z,993.7
2019-01-16T12:40:07.690Z,993.8
2019-01-16T12:41:09.819Z,993.9
2019-01-16T12:42:11.957Z,993.7
2019-01-16T12:43:14.341Z,993.7
2019-01-16T12:44:16.461Z,993.7
2019-01-16T12:45:18.636Z,993.7
2019-01-16T12:46:21.051Z,993.7
2019-01-16T12:47:23.184Z,993.6
2019-01-16T12:48:25.348Z,993.7
2019-01-16T12:49:27.524Z,993.5
2019-01-16T12:50:29.638Z,993.6
2019-01-16T12:51:33.953Z,993.6
2019-01-16T12:52:36.067Z,993.6
2019-01-16T12:53:38.183Z,993.5
2019-01-16T12:54:40.311Z,993.5
2019-01-16T12:55:42.419Z,993.5
2019-01-16T12:56:44.544Z,993.4
2019-01-16T12:57:46.656Z,993.5
2019-01-16T12:58:48.779Z,993.4
2019-01-16T12:59:50.889Z,993.4
2019-01-16T13:00:53.010Z,993.3
2019-01-16T13:01:55.122Z,993.4
2019-01-16T13:02:57.251Z,993.4
2019-01-16T13:03:59.395Z,993.4
2019-01-16T13:05:01.808Z,993.3
2019-01-16T13:06:04.611Z,993.3
2019-01-16T13:07:07.118Z,993.3
2019-01-16T13:08:09.237Z,993.4
2019-01-16T13:09:11.340Z,993.3
2019-01-16T13:10:13.473Z,993.3
2019-01-16T13:11:15.581Z,993.3
2019-01-16T13:12:17.704Z,993.3
2019-01-16T13:13:19.831Z,993.3
2019-01-16T13:14:21.948Z,993.4
2019-01-16T13:15:24.054Z,993.4
2019-01-16T13:16:26.189Z,993.4
2019-01-16T13:17:28.303Z,993.4
2019-01-16T13:18:30.408Z,993.3
2019-01-16T13:19:32.855Z,993.3
2019-01-16T13:20:34.950Z,993.3
2019-01-16T13:21:40.411Z,993.3
2019-01-16T13:22:46.620Z,993.2
2019-01-16T13:23:48.774Z,993.2
2019-01-16T13:24:50.877Z,993.2
2019-01-16T13:25:53.030Z,993.3
2019-01-16T13:26:55.149Z,993.3
2019-01-16T13:27:57.660Z,993.2
2019-01-16T13:28:59.803Z,993.2
2019-01-16T13:30:02.211Z,993.2
2019-01-16T13:31:04.341Z,993.3
2019-01-16T13:32:06.447Z,993.1
2019-01-16T13:33:08.573Z,993.2
2019-01-16T13:34:10.679Z,993
2019-01-16T13:35:12.801Z,993.1